Pagrindinis puslapis
METAR-TAF:

METAR-TAF

Oro uostai :

Mitilėnė-Lesbas, Graikija

platuma: 39-04N, ilguma: 026-36E, Aukštis: 3 m

Dabartinis oras

Ataskaita buvo paskelbta 1 valandą ir 34 minutes, ne 20:20 UTC
Vėjas 4 kt iš Pietvakarių
Temperatūra 12°C
Drėgmė 88%
Slėgis 1022 hPa
Matomumas 10 km arba daugiau
nėra debesų žemiau 1500 m ir nėra kamuolinių lietaus debesų

METAR: LGMT 152020Z 23004KT CAVOK 12/10 Q1022

Laikas: 23:54 (21:54 UTC)

Prognozė

Ataskaita buvo paskelbta 1 valandą ir 54 minutes, ne 20:00 UTC
Prognozė galioja nuo 15 metu 21 UTC su 16 metu 06 UTC
Vėjas 5 kt iš Pietų/Pietryčių
Matomumas 10 km arba daugiau
Mažai debesys ne aukštis 2000 ft
Tikimybė 30%
nuo 16 metu 00 UTC su 16 metu 06 UTC
Matomumas: 5000 m
Išsisklaidę debesys ne aukštis 800 ft
rūkana

TAF: LGMT 152000Z 1521/1606 15005KT 9999 FEW020 PROB30 1600/1606 5000 BR SCT008

Orai ataskaitas ir orų prognozės (METAR, TAF).

turimą stotys yra geltonos ir raudonos taškus žemėlapyje.

Perkelti pele per norėdami pamatyti stoties vardą.

Tada spustelėkite, norėdami matyti oro stebėjimo ir prognozės.

Norėdami pakeisti žemėlapį: spustelėkite ant žalios mygtukų su juodo kryžiaus žemyn,; žalią mygtuką su brūkšneliu, jei norite nutolinti; arba žalių rodyklių gretimoms žemėlapius.


METAR-TAF: